sensor_id;sensor_type;location;lat;lon;timestamp;P1;durP1;ratioP1;P2;durP2;ratioP2
6926;SDS011;3503;50.07605000;8.86719200;2023-04-24T00:13:02;2.10;;;0.60;;
6926;SDS011;3503;50.07605000;8.86719200;2023-04-24T00:28:05;3.60;;;1.03;;
6926;SDS011;3503;50.07605000;8.86719200;2023-04-24T00:43:08;3.70;;;0.77;;
6926;SDS011;3503;50.07605000;8.86719200;2023-04-24T00:58:11;2.60;;;0.97;;
6926;SDS011;3503;50.07605000;8.86719200;2023-04-24T01:13:14;2.47;;;0.77;;
6926;SDS011;3503;50.07605000;8.86719200;2023-04-24T01:28:17;1.73;;;0.67;;
6926;SDS011;3503;50.07605000;8.86719200;2023-04-24T01:43:21;1.23;;;0.43;;
6926;SDS011;3503;50.07605000;8.86719200;2023-04-24T01:58:24;2.93;;;0.57;;
6926;SDS011;3503;50.07605000;8.86719200;2023-04-24T02:13:27;3.67;;;0.70;;
6926;SDS011;3503;50.07605000;8.86719200;2023-04-24T02:28:30;3.70;;;0.83;;
6926;SDS011;3503;50.07605000;8.86719200;2023-04-24T02:43:33;4.00;;;0.40;;
6926;SDS011;3503;50.07605000;8.86719200;2023-04-24T02:58:36;2.40;;;0.80;;
6926;SDS011;3503;50.07605000;8.86719200;2023-04-24T03:13:39;7.23;;;0.90;;
6926;SDS011;3503;50.07605000;8.86719200;2023-04-24T03:28:42;8.57;;;1.37;;
6926;SDS011;3503;50.07605000;8.86719200;2023-04-24T03:43:45;4.43;;;1.00;;
6926;SDS011;3503;50.07605000;8.86719200;2023-04-24T03:58:48;2.60;;;0.77;;
6926;SDS011;3503;50.07605000;8.86719200;2023-04-24T04:13:50;2.30;;;1.00;;
6926;SDS011;3503;50.07605000;8.86719200;2023-04-24T04:28:53;4.10;;;1.07;;
6926;SDS011;3503;50.07605000;8.86719200;2023-04-24T04:43:57;3.03;;;0.90;;
6926;SDS011;3503;50.07605000;8.86719200;2023-04-24T04:59:00;1.63;;;0.77;;
6926;SDS011;3503;50.07605000;8.86719200;2023-04-24T05:14:03;2.37;;;1.10;;
6926;SDS011;3503;50.07605000;8.86719200;2023-04-24T05:29:06;4.50;;;1.20;;
6926;SDS011;3503;50.07605000;8.86719200;2023-04-24T05:44:09;2.70;;;1.00;;
6926;SDS011;3503;50.07605000;8.86719200;2023-04-24T05:59:12;2.03;;;1.00;;
6926;SDS011;3503;50.07605000;8.86719200;2023-04-24T06:14:15;5.03;;;3.60;;
6926;SDS011;3503;50.07605000;8.86719200;2023-04-24T06:29:18;4.37;;;1.63;;
6926;SDS011;3503;50.07605000;8.86719200;2023-04-24T06:44:21;7.20;;;2.03;;
6926;SDS011;3503;50.07605000;8.86719200;2023-04-24T06:59:23;4.00;;;2.10;;
6926;SDS011;3503;50.07605000;8.86719200;2023-04-24T07:14:26;3.27;;;1.87;;
6926;SDS011;3503;50.07605000;8.86719200;2023-04-24T07:29:29;6.27;;;2.30;;
6926;SDS011;3503;50.07605000;8.86719200;2023-04-24T07:44:32;3.53;;;1.67;;
6926;SDS011;3503;50.07605000;8.86719200;2023-04-24T07:59:35;3.80;;;1.97;;
6926;SDS011;3503;50.07605000;8.86719200;2023-04-24T08:14:38;5.17;;;2.03;;
6926;SDS011;3503;50.07605000;8.86719200;2023-04-24T08:29:41;2.93;;;1.67;;
6926;SDS011;3503;50.07605000;8.86719200;2023-04-24T08:44:44;7.43;;;2.20;;
6926;SDS011;3503;50.07605000;8.86719200;2023-04-24T08:59:47;2.73;;;1.60;;
6926;SDS011;3503;50.07605000;8.86719200;2023-04-24T09:14:51;2.87;;;1.70;;
6926;SDS011;3503;50.07605000;8.86719200;2023-04-24T09:29:55;4.43;;;2.47;;
6926;SDS011;3503;50.07605000;8.86719200;2023-04-24T09:44:58;6.50;;;1.97;;
6926;SDS011;3503;50.07605000;8.86719200;2023-04-24T10:00:01;2.53;;;1.80;;
6926;SDS011;3503;50.07605000;8.86719200;2023-04-24T10:15:07;2.53;;;1.00;;
6926;SDS011;3503;50.07605000;8.86719200;2023-04-24T10:30:14;1.70;;;0.70;;
6926;SDS011;3503;50.07605000;8.86719200;2023-04-24T10:45:17;2.13;;;1.13;;
6926;SDS011;3503;50.07605000;8.86719200;2023-04-24T11:00:24;3.03;;;1.13;;
6926;SDS011;3503;50.07605000;8.86719200;2023-04-24T11:15:28;4.13;;;1.33;;
6926;SDS011;3503;50.07605000;8.86719200;2023-04-24T11:30:32;4.20;;;1.20;;
6926;SDS011;3503;50.07605000;8.86719200;2023-04-24T11:45:36;2.20;;;0.70;;
6926;SDS011;3503;50.07605000;8.86719200;2023-04-24T12:00:39;5.50;;;0.90;;
6926;SDS011;3503;50.07605000;8.86719200;2023-04-24T12:15:42;1.63;;;0.40;;
6926;SDS011;3503;50.07605000;8.86719200;2023-04-24T12:30:46;1.13;;;0.40;;
6926;SDS011;3503;50.07605000;8.86719200;2023-04-24T12:45:50;2.60;;;1.13;;
6926;SDS011;3503;50.07605000;8.86719200;2023-04-24T13:00:53;2.20;;;0.90;;
6926;SDS011;3503;50.07605000;8.86719200;2023-04-24T13:15:56;3.40;;;1.50;;
6926;SDS011;3503;50.07605000;8.86719200;2023-04-24T13:30:59;4.60;;;2.20;;
6926;SDS011;3503;50.07605000;8.86719200;2023-04-24T13:46:02;3.20;;;1.77;;
6926;SDS011;3503;50.07605000;8.86719200;2023-04-24T14:01:05;7.07;;;2.30;;
6926;SDS011;3503;50.07605000;8.86719200;2023-04-24T14:16:08;3.37;;;2.03;;
6926;SDS011;3503;50.07605000;8.86719200;2023-04-24T14:31:11;5.13;;;3.03;;
6926;SDS011;3503;50.07605000;8.86719200;2023-04-24T14:46:14;4.53;;;2.90;;
6926;SDS011;3503;50.07605000;8.86719200;2023-04-24T15:01:17;6.53;;;2.30;;
6926;SDS011;3503;50.07605000;8.86719200;2023-04-24T15:16:20;5.83;;;2.80;;
6926;SDS011;3503;50.07605000;8.86719200;2023-04-24T15:31:23;3.57;;;1.80;;
6926;SDS011;3503;50.07605000;8.86719200;2023-04-24T15:46:26;5.70;;;1.83;;
6926;SDS011;3503;50.07605000;8.86719200;2023-04-24T16:01:29;11.00;;;2.80;;
6926;SDS011;3503;50.07605000;8.86719200;2023-04-24T16:16:33;3.97;;;2.77;;
6926;SDS011;3503;50.07605000;8.86719200;2023-04-24T16:31:36;3.43;;;2.20;;
6926;SDS011;3503;50.07605000;8.86719200;2023-04-24T16:46:39;4.40;;;2.07;;
6926;SDS011;3503;50.07605000;8.86719200;2023-04-24T17:01:43;6.43;;;2.20;;
6926;SDS011;3503;50.07605000;8.86719200;2023-04-24T17:16:47;4.60;;;2.50;;
6926;SDS011;3503;50.07605000;8.86719200;2023-04-24T17:31:50;5.33;;;2.40;;
6926;SDS011;3503;50.07605000;8.86719200;2023-04-24T17:46:53;4.13;;;2.00;;
6926;SDS011;3503;50.07605000;8.86719200;2023-04-24T18:01:57;6.87;;;2.17;;
6926;SDS011;3503;50.07605000;8.86719200;2023-04-24T18:17:00;7.10;;;3.23;;
6926;SDS011;3503;50.07605000;8.86719200;2023-04-24T18:32:03;3.90;;;1.80;;
6926;SDS011;3503;50.07605000;8.86719200;2023-04-24T18:47:06;5.53;;;2.50;;
6926;SDS011;3503;50.07605000;8.86719200;2023-04-24T19:02:10;7.40;;;2.93;;
6926;SDS011;3503;50.07605000;8.86719200;2023-04-24T19:17:13;4.47;;;1.80;;
6926;SDS011;3503;50.07605000;8.86719200;2023-04-24T19:32:18;5.63;;;2.70;;
6926;SDS011;3503;50.07605000;8.86719200;2023-04-24T19:47:21;3.73;;;2.00;;
6926;SDS011;3503;50.07605000;8.86719200;2023-04-24T20:02:24;7.23;;;3.33;;
6926;SDS011;3503;50.07605000;8.86719200;2023-04-24T20:17:27;12.20;;;6.13;;
6926;SDS011;3503;50.07605000;8.86719200;2023-04-24T20:32:30;6.00;;;3.23;;
6926;SDS011;3503;50.07605000;8.86719200;2023-04-24T20:47:33;8.53;;;3.33;;
6926;SDS011;3503;50.07605000;8.86719200;2023-04-24T21:02:37;4.93;;;3.13;;
6926;SDS011;3503;50.07605000;8.86719200;2023-04-24T21:17:40;5.23;;;3.00;;
6926;SDS011;3503;50.07605000;8.86719200;2023-04-24T21:32:43;9.00;;;3.53;;
6926;SDS011;3503;50.07605000;8.86719200;2023-04-24T21:47:46;8.63;;;2.90;;
6926;SDS011;3503;50.07605000;8.86719200;2023-04-24T22:02:49;7.00;;;3.40;;
6926;SDS011;3503;50.07605000;8.86719200;2023-04-24T22:17:52;6.60;;;3.33;;
6926;SDS011;3503;50.07605000;8.86719200;2023-04-24T22:32:55;8.13;;;3.80;;
6926;SDS011;3503;50.07605000;8.86719200;2023-04-24T22:47:58;4.63;;;3.00;;
6926;SDS011;3503;50.07605000;8.86719200;2023-04-24T23:03:01;7.67;;;4.87;;
6926;SDS011;3503;50.07605000;8.86719200;2023-04-24T23:18:04;7.90;;;4.90;;
6926;SDS011;3503;50.07605000;8.86719200;2023-04-24T23:33:07;7.00;;;4.80;;
6926;SDS011;3503;50.07605000;8.86719200;2023-04-24T23:48:11;7.07;;;4.20;;
